sensor_id;sensor_type;location;lat;lon;timestamp;temperature;humidity
40828;DHT22;26549;50.918;5.338;2023-05-29T00:01:01;16.10;99.90
40828;DHT22;26549;50.918;5.338;2023-05-29T00:03:28;16.30;99.90
40828;DHT22;26549;50.918;5.338;2023-05-29T00:05:58;16.20;99.90
40828;DHT22;26549;50.918;5.338;2023-05-29T00:08:24;16.10;99.90
40828;DHT22;26549;50.918;5.338;2023-05-29T00:10:49;16.10;99.90
40828;DHT22;26549;50.918;5.338;2023-05-29T00:13:15;15.90;99.90
40828;DHT22;26549;50.918;5.338;2023-05-29T00:15:41;15.90;99.90
40828;DHT22;26549;50.918;5.338;2023-05-29T00:18:07;15.80;99.90
40828;DHT22;26549;50.918;5.338;2023-05-29T00:20:33;15.80;99.90
40828;DHT22;26549;50.918;5.338;2023-05-29T00:23:00;15.90;99.90
40828;DHT22;26549;50.918;5.338;2023-05-29T00:25:27;15.80;99.90
40828;DHT22;26549;50.918;5.338;2023-05-29T00:27:53;15.80;99.90
40828;DHT22;26549;50.918;5.338;2023-05-29T00:30:18;15.80;99.90
40828;DHT22;26549;50.918;5.338;2023-05-29T00:32:44;15.90;99.90
40828;DHT22;26549;50.918;5.338;2023-05-29T00:35:11;15.90;99.90
40828;DHT22;26549;50.918;5.338;2023-05-29T00:37:37;15.90;99.90
40828;DHT22;26549;50.918;5.338;2023-05-29T00:40:03;15.80;99.90
40828;DHT22;26549;50.918;5.338;2023-05-29T00:42:29;15.60;99.90
40828;DHT22;26549;50.918;5.338;2023-05-29T00:44:55;15.40;99.90
40828;DHT22;26549;50.918;5.338;2023-05-29T00:47:21;15.40;99.90
40828;DHT22;26549;50.918;5.338;2023-05-29T00:49:47;15.30;99.90
40828;DHT22;26549;50.918;5.338;2023-05-29T00:52:17;15.40;99.90
40828;DHT22;26549;50.918;5.338;2023-05-29T00:54:45;15.30;99.90
40828;DHT22;26549;50.918;5.338;2023-05-29T00:57:12;15.20;99.90
40828;DHT22;26549;50.918;5.338;2023-05-29T00:59:39;15.30;99.90
40828;DHT22;26549;50.918;5.338;2023-05-29T01:02:06;15.20;99.90
40828;DHT22;26549;50.918;5.338;2023-05-29T01:04:35;15.10;99.90
40828;DHT22;26549;50.918;5.338;2023-05-29T01:07:05;15.10;99.90
40828;DHT22;26549;50.918;5.338;2023-05-29T01:09:32;15.10;99.90
40828;DHT22;26549;50.918;5.338;2023-05-29T01:15:25;15.00;99.90
40828;DHT22;26549;50.918;5.338;2023-05-29T01:21:19;14.80;99.90
40828;DHT22;26549;50.918;5.338;2023-05-29T01:26:40;14.50;99.90
40828;DHT22;26549;50.918;5.338;2023-05-29T01:29:14;14.60;99.90
40828;DHT22;26549;50.918;5.338;2023-05-29T01:31:50;14.60;99.90
40828;DHT22;26549;50.918;5.338;2023-05-29T01:34:23;14.40;99.90
40828;DHT22;26549;50.918;5.338;2023-05-29T01:36:49;14.50;99.90
40828;DHT22;26549;50.918;5.338;2023-05-29T01:39:19;14.60;99.90
40828;DHT22;26549;50.918;5.338;2023-05-29T01:41:47;14.50;99.90
40828;DHT22;26549;50.918;5.338;2023-05-29T01:44:15;14.40;99.90
40828;DHT22;26549;50.918;5.338;2023-05-29T01:46:43;14.30;99.90
40828;DHT22;26549;50.918;5.338;2023-05-29T01:49:11;14.20;99.90
40828;DHT22;26549;50.918;5.338;2023-05-29T01:51:40;14.10;99.90
40828;DHT22;26549;50.918;5.338;2023-05-29T01:54:06;14.00;99.90
40828;DHT22;26549;50.918;5.338;2023-05-29T01:56:35;14.20;99.90
40828;DHT22;26549;50.918;5.338;2023-05-29T01:59:10;14.20;99.90
40828;DHT22;26549;50.918;5.338;2023-05-29T02:01:41;13.90;99.90
40828;DHT22;26549;50.918;5.338;2023-05-29T02:04:09;13.80;99.90
40828;DHT22;26549;50.918;5.338;2023-05-29T02:06:35;13.80;99.90
40828;DHT22;26549;50.918;5.338;2023-05-29T02:09:02;13.80;99.90
40828;DHT22;26549;50.918;5.338;2023-05-29T02:11:30;13.70;99.90
40828;DHT22;26549;50.918;5.338;2023-05-29T02:13:56;13.90;99.90
40828;DHT22;26549;50.918;5.338;2023-05-29T02:16:25;13.70;99.90
40828;DHT22;26549;50.918;5.338;2023-05-29T02:18:55;13.80;99.90
40828;DHT22;26549;50.918;5.338;2023-05-29T02:21:21;13.70;99.90
40828;DHT22;26549;50.918;5.338;2023-05-29T02:23:52;13.50;99.90
40828;DHT22;26549;50.918;5.338;2023-05-29T02:26:23;13.50;99.90
40828;DHT22;26549;50.918;5.338;2023-05-29T02:28:54;13.30;99.90
40828;DHT22;26549;50.918;5.338;2023-05-29T02:31:21;13.30;99.90
40828;DHT22;26549;50.918;5.338;2023-05-29T02:33:50;13.30;99.90
40828;DHT22;26549;50.918;5.338;2023-05-29T02:36:20;13.40;99.90
40828;DHT22;26549;50.918;5.338;2023-05-29T02:38:51;13.50;99.90
40828;DHT22;26549;50.918;5.338;2023-05-29T02:41:24;13.60;99.90
40828;DHT22;26549;50.918;5.338;2023-05-29T02:43:57;13.40;99.90
40828;DHT22;26549;50.918;5.338;2023-05-29T02:46:25;13.30;99.90
40828;DHT22;26549;50.918;5.338;2023-05-29T02:48:54;13.20;99.90
40828;DHT22;26549;50.918;5.338;2023-05-29T02:51:29;13.10;99.90
40828;DHT22;26549;50.918;5.338;2023-05-29T02:54:02;12.90;99.90
40828;DHT22;26549;50.918;5.338;2023-05-29T02:56:31;13.00;99.90
40828;DHT22;26549;50.918;5.338;2023-05-29T02:59:04;13.10;99.90
40828;DHT22;26549;50.918;5.338;2023-05-29T03:01:33;12.80;99.90
40828;DHT22;26549;50.918;5.338;2023-05-29T03:03:59;13.00;99.90
40828;DHT22;26549;50.918;5.338;2023-05-29T03:06:27;13.20;99.90
40828;DHT22;26549;50.918;5.338;2023-05-29T03:08:53;13.20;99.90
40828;DHT22;26549;50.918;5.338;2023-05-29T03:11:18;13.20;99.90
40828;DHT22;26549;50.918;5.338;2023-05-29T03:13:47;13.20;99.90
40828;DHT22;26549;50.918;5.338;2023-05-29T03:16:20;13.20;99.90
40828;DHT22;26549;50.918;5.338;2023-05-29T03:18:49;13.20;99.90
40828;DHT22;26549;50.918;5.338;2023-05-29T03:21:17;12.90;99.90
40828;DHT22;26549;50.918;5.338;2023-05-29T03:23:43;12.90;99.90
40828;DHT22;26549;50.918;5.338;2023-05-29T03:26:09;12.90;99.90
40828;DHT22;26549;50.918;5.338;2023-05-29T03:28:36;12.80;99.90
40828;DHT22;26549;50.918;5.338;2023-05-29T03:31:04;12.80;99.90
40828;DHT22;26549;50.918;5.338;2023-05-29T03:33:31;12.50;99.90
40828;DHT22;26549;50.918;5.338;2023-05-29T03:35:57;12.80;99.90
40828;DHT22;26549;50.918;5.338;2023-05-29T03:38:23;12.90;99.90
40828;DHT22;26549;50.918;5.338;2023-05-29T03:40:51;13.00;99.90
40828;DHT22;26549;50.918;5.338;2023-05-29T03:43:17;13.00;99.90
40828;DHT22;26549;50.918;5.338;2023-05-29T03:45:43;13.00;99.90
40828;DHT22;26549;50.918;5.338;2023-05-29T03:48:08;13.00;99.90
40828;DHT22;26549;50.918;5.338;2023-05-29T03:50:34;13.10;99.90
40828;DHT22;26549;50.918;5.338;2023-05-29T03:53:00;13.10;99.90
40828;DHT22;26549;50.918;5.338;2023-05-29T03:55:29;13.20;99.90
40828;DHT22;26549;50.918;5.338;2023-05-29T03:57:55;13.00;99.90
40828;DHT22;26549;50.918;5.338;2023-05-29T04:00:21;13.10;99.90
40828;DHT22;26549;50.918;5.338;2023-05-29T04:02:47;13.10;99.90
40828;DHT22;26549;50.918;5.338;2023-05-29T04:05:13;13.00;99.90
40828;DHT22;26549;50.918;5.338;2023-05-29T04:07:41;12.90;99.90
40828;DHT22;26549;50.918;5.338;2023-05-29T04:10:07;12.90;99.90
40828;DHT22;26549;50.918;5.338;2023-05-29T04:12:34;13.00;99.90
40828;DHT22;26549;50.918;5.338;2023-05-29T04:15:02;13.00;99.90
40828;DHT22;26549;50.918;5.338;2023-05-29T04:17:28;12.70;99.90
40828;DHT22;26549;50.918;5.338;2023-05-29T04:19:54;12.50;99.90
40828;DHT22;26549;50.918;5.338;2023-05-29T04:22:20;12.60;99.90
40828;DHT22;26549;50.918;5.338;2023-05-29T04:24:46;12.50;99.90
40828;DHT22;26549;50.918;5.338;2023-05-29T04:27:12;12.60;99.90
40828;DHT22;26549;50.918;5.338;2023-05-29T04:29:39;12.70;99.90
40828;DHT22;26549;50.918;5.338;2023-05-29T04:32:10;12.90;99.90
40828;DHT22;26549;50.918;5.338;2023-05-29T04:34:39;12.90;99.90
40828;DHT22;26549;50.918;5.338;2023-05-29T04:37:06;12.60;99.90
40828;DHT22;26549;50.918;5.338;2023-05-29T04:39:32;12.50;99.90
40828;DHT22;26549;50.918;5.338;2023-05-29T04:41:58;12.40;99.90
40828;DHT22;26549;50.918;5.338;2023-05-29T04:44:27;12.50;99.90
40828;DHT22;26549;50.918;5.338;2023-05-29T04:46:55;12.70;99.90
40828;DHT22;26549;50.918;5.338;2023-05-29T04:49:23;12.70;99.90
40828;DHT22;26549;50.918;5.338;2023-05-29T04:51:50;12.40;99.90
40828;DHT22;26549;50.918;5.338;2023-05-29T04:54:22;12.40;99.90
40828;DHT22;26549;50.918;5.338;2023-05-29T04:56:51;12.30;99.90
40828;DHT22;26549;50.918;5.338;2023-05-29T04:59:17;12.40;99.90
40828;DHT22;26549;50.918;5.338;2023-05-29T05:01:42;12.60;99.90
40828;DHT22;26549;50.918;5.338;2023-05-29T05:04:10;12.70;99.90
40828;DHT22;26549;50.918;5.338;2023-05-29T05:06:38;12.60;99.90
40828;DHT22;26549;50.918;5.338;2023-05-29T05:09:09;12.80;99.90
40828;DHT22;26549;50.918;5.338;2023-05-29T05:11:37;12.80;99.90
40828;DHT22;26549;50.918;5.338;2023-05-29T05:14:11;12.80;99.90
40828;DHT22;26549;50.918;5.338;2023-05-29T05:16:36;12.80;99.90
40828;DHT22;26549;50.918;5.338;2023-05-29T05:19:05;12.90;99.90
40828;DHT22;26549;50.918;5.338;2023-05-29T05:21:31;12.90;99.90
40828;DHT22;26549;50.918;5.338;2023-05-29T05:24:00;12.90;99.90
40828;DHT22;26549;50.918;5.338;2023-05-29T05:26:28;12.80;99.90
40828;DHT22;26549;50.918;5.338;2023-05-29T05:28:54;12.80;99.90
40828;DHT22;26549;50.918;5.338;2023-05-29T05:31:22;12.90;99.90
40828;DHT22;26549;50.918;5.338;2023-05-29T05:33:49;13.10;99.90
40828;DHT22;26549;50.918;5.338;2023-05-29T05:36:14;13.20;99.90
40828;DHT22;26549;50.918;5.338;2023-05-29T05:38:40;13.10;99.90
40828;DHT22;26549;50.918;5.338;2023-05-29T05:41:07;13.10;99.90
40828;DHT22;26549;50.918;5.338;2023-05-29T05:43:34;13.20;99.90
40828;DHT22;26549;50.918;5.338;2023-05-29T05:46:08;13.30;99.90
40828;DHT22;26549;50.918;5.338;2023-05-29T05:48:34;13.40;99.90
40828;DHT22;26549;50.918;5.338;2023-05-29T05:51:00;13.20;99.90
40828;DHT22;26549;50.918;5.338;2023-05-29T05:53:29;13.20;99.90
40828;DHT22;26549;50.918;5.338;2023-05-29T05:55:57;13.30;99.90
40828;DHT22;26549;50.918;5.338;2023-05-29T05:58:25;13.30;99.90
40828;DHT22;26549;50.918;5.338;2023-05-29T06:00:51;13.40;99.90
40828;DHT22;26549;50.918;5.338;2023-05-29T06:03:18;13.50;99.90
40828;DHT22;26549;50.918;5.338;2023-05-29T06:05:44;13.30;99.90
40828;DHT22;26549;50.918;5.338;2023-05-29T06:08:12;13.50;99.90
40828;DHT22;26549;50.918;5.338;2023-05-29T06:10:37;13.40;99.90
40828;DHT22;26549;50.918;5.338;2023-05-29T06:13:03;13.60;99.90
40828;DHT22;26549;50.918;5.338;2023-05-29T06:15:36;13.80;99.90
40828;DHT22;26549;50.918;5.338;2023-05-29T06:18:05;13.50;99.90
40828;DHT22;26549;50.918;5.338;2023-05-29T06:20:34;13.60;99.90
40828;DHT22;26549;50.918;5.338;2023-05-29T06:23:02;13.60;99.90
40828;DHT22;26549;50.918;5.338;2023-05-29T06:25:27;13.90;99.90
40828;DHT22;26549;50.918;5.338;2023-05-29T06:28:02;14.00;99.90
40828;DHT22;26549;50.918;5.338;2023-05-29T06:30:28;13.80;99.90
40828;DHT22;26549;50.918;5.338;2023-05-29T06:32:53;14.20;99.90
40828;DHT22;26549;50.918;5.338;2023-05-29T06:35:19;14.50;99.90
40828;DHT22;26549;50.918;5.338;2023-05-29T06:37:46;14.80;99.90
40828;DHT22;26549;50.918;5.338;2023-05-29T06:40:12;14.90;99.90
40828;DHT22;26549;50.918;5.338;2023-05-29T06:42:41;14.90;99.90
40828;DHT22;26549;50.918;5.338;2023-05-29T06:45:11;15.00;99.90
40828;DHT22;26549;50.918;5.338;2023-05-29T06:47:43;15.00;99.90
40828;DHT22;26549;50.918;5.338;2023-05-29T06:50:09;14.90;99.90
40828;DHT22;26549;50.918;5.338;2023-05-29T06:52:35;14.60;99.90
40828;DHT22;26549;50.918;5.338;2023-05-29T06:55:01;14.60;99.90
40828;DHT22;26549;50.918;5.338;2023-05-29T06:57:27;14.60;99.90
40828;DHT22;26549;50.918;5.338;2023-05-29T06:59:54;14.80;99.90
40828;DHT22;26549;50.918;5.338;2023-05-29T07:02:19;14.70;99.90
40828;DHT22;26549;50.918;5.338;2023-05-29T07:04:45;14.80;99.90
40828;DHT22;26549;50.918;5.338;2023-05-29T07:07:11;15.10;99.90
40828;DHT22;26549;50.918;5.338;2023-05-29T07:09:37;15.40;99.90
40828;DHT22;26549;50.918;5.338;2023-05-29T07:12:05;15.30;99.90
40828;DHT22;26549;50.918;5.338;2023-05-29T07:14:31;15.20;99.90
40828;DHT22;26549;50.918;5.338;2023-05-29T07:16:57;15.20;99.90
40828;DHT22;26549;50.918;5.338;2023-05-29T07:19:28;15.10;99.90
40828;DHT22;26549;50.918;5.338;2023-05-29T07:22:13;15.20;99.90
40828;DHT22;26549;50.918;5.338;2023-05-29T07:24:45;15.30;99.90
40828;DHT22;26549;50.918;5.338;2023-05-29T07:27:14;15.20;99.90
40828;DHT22;26549;50.918;5.338;2023-05-29T07:29:40;15.10;99.90
40828;DHT22;26549;50.918;5.338;2023-05-29T07:32:22;15.40;99.90
40828;DHT22;26549;50.918;5.338;2023-05-29T07:35:07;15.70;99.90
40828;DHT22;26549;50.918;5.338;2023-05-29T07:40:34;15.80;99.90
40828;DHT22;26549;50.918;5.338;2023-05-29T07:43:18;15.50;99.90
40828;DHT22;26549;50.918;5.338;2023-05-29T07:45:46;15.70;99.90
40828;DHT22;26549;50.918;5.338;2023-05-29T07:48:17;16.10;99.90
40828;DHT22;26549;50.918;5.338;2023-05-29T07:50:43;16.10;99.90
40828;DHT22;26549;50.918;5.338;2023-05-29T07:53:09;16.30;99.90
40828;DHT22;26549;50.918;5.338;2023-05-29T07:58:45;16.20;99.90
40828;DHT22;26549;50.918;5.338;2023-05-29T08:01:23;15.80;99.90
40828;DHT22;26549;50.918;5.338;2023-05-29T08:04:18;15.90;99.90
40828;DHT22;26549;50.918;5.338;2023-05-29T08:06:48;15.90;99.90
40828;DHT22;26549;50.918;5.338;2023-05-29T08:09:17;15.80;99.90
40828;DHT22;26549;50.918;5.338;2023-05-29T08:15:33;15.80;99.90
40828;DHT22;26549;50.918;5.338;2023-05-29T08:18:26;15.60;99.90
40828;DHT22;26549;50.918;5.338;2023-05-29T08:21:02;15.60;99.90
40828;DHT22;26549;50.918;5.338;2023-05-29T08:23:28;15.90;99.90
40828;DHT22;26549;50.918;5.338;2023-05-29T08:25:54;16.10;99.90
40828;DHT22;26549;50.918;5.338;2023-05-29T08:28:21;16.30;99.90
40828;DHT22;26549;50.918;5.338;2023-05-29T08:30:47;16.20;99.90
40828;DHT22;26549;50.918;5.338;2023-05-29T08:33:13;16.20;99.90
40828;DHT22;26549;50.918;5.338;2023-05-29T08:35:40;16.10;99.90
40828;DHT22;26549;50.918;5.338;2023-05-29T08:38:06;16.30;99.90
40828;DHT22;26549;50.918;5.338;2023-05-29T08:40:31;16.50;99.90
40828;DHT22;26549;50.918;5.338;2023-05-29T08:43:02;16.80;99.90
40828;DHT22;26549;50.918;5.338;2023-05-29T08:45:29;16.90;99.90
40828;DHT22;26549;50.918;5.338;2023-05-29T08:48:00;16.90;99.90
40828;DHT22;26549;50.918;5.338;2023-05-29T08:50:27;16.60;99.90
40828;DHT22;26549;50.918;5.338;2023-05-29T08:52:52;16.60;99.90
40828;DHT22;26549;50.918;5.338;2023-05-29T08:55:18;16.50;99.90
40828;DHT22;26549;50.918;5.338;2023-05-29T08:57:47;16.60;99.90
40828;DHT22;26549;50.918;5.338;2023-05-29T09:00:15;16.80;99.90
40828;DHT22;26549;50.918;5.338;2023-05-29T09:02:44;17.00;99.90
40828;DHT22;26549;50.918;5.338;2023-05-29T09:05:11;17.00;99.90
40828;DHT22;26549;50.918;5.338;2023-05-29T09:07:40;17.10;99.80
40828;DHT22;26549;50.918;5.338;2023-05-29T09:10:08;16.80;99.90
40828;DHT22;26549;50.918;5.338;2023-05-29T09:12:34;16.90;99.90
40828;DHT22;26549;50.918;5.338;2023-05-29T09:15:01;17.00;99.80
40828;DHT22;26549;50.918;5.338;2023-05-29T09:17:31;16.80;99.90
40828;DHT22;26549;50.918;5.338;2023-05-29T09:20:14;16.70;99.90
40828;DHT22;26549;50.918;5.338;2023-05-29T09:22:46;17.10;99.90
40828;DHT22;26549;50.918;5.338;2023-05-29T09:25:12;17.30;99.90
40828;DHT22;26549;50.918;5.338;2023-05-29T09:27:39;17.30;99.60
40828;DHT22;26549;50.918;5.338;2023-05-29T09:30:05;17.60;99.90
40828;DHT22;26549;50.918;5.338;2023-05-29T09:32:32;17.80;99.20
40828;DHT22;26549;50.918;5.338;2023-05-29T09:35:00;17.80;99.30
40828;DHT22;26549;50.918;5.338;2023-05-29T09:37:30;18.00;98.40
40828;DHT22;26549;50.918;5.338;2023-05-29T09:39:57;17.80;98.70
40828;DHT22;26549;50.918;5.338;2023-05-29T09:42:24;17.50;98.70
40828;DHT22;26549;50.918;5.338;2023-05-29T09:44:59;17.30;99.10
40828;DHT22;26549;50.918;5.338;2023-05-29T09:47:33;17.10;99.30
40828;DHT22;26549;50.918;5.338;2023-05-29T09:50:00;17.10;99.20
40828;DHT22;26549;50.918;5.338;2023-05-29T09:52:29;17.30;99.90
40828;DHT22;26549;50.918;5.338;2023-05-29T09:54:55;17.60;99.70
40828;DHT22;26549;50.918;5.338;2023-05-29T09:57:23;17.80;99.30
40828;DHT22;26549;50.918;5.338;2023-05-29T09:59:52;17.70;98.50
40828;DHT22;26549;50.918;5.338;2023-05-29T10:02:18;17.70;98.90
40828;DHT22;26549;50.918;5.338;2023-05-29T10:04:44;18.00;98.80
40828;DHT22;26549;50.918;5.338;2023-05-29T10:07:31;18.00;98.50
40828;DHT22;26549;50.918;5.338;2023-05-29T10:10:04;17.90;98.40
40828;DHT22;26549;50.918;5.338;2023-05-29T10:12:44;18.10;98.30
40828;DHT22;26549;50.918;5.338;2023-05-29T10:15:43;18.20;98.40
40828;DHT22;26549;50.918;5.338;2023-05-29T10:18:32;18.40;98.00
40828;DHT22;26549;50.918;5.338;2023-05-29T10:21:01;18.50;98.10
40828;DHT22;26549;50.918;5.338;2023-05-29T10:23:29;18.30;97.50
40828;DHT22;26549;50.918;5.338;2023-05-29T10:26:18;17.90;97.40
40828;DHT22;26549;50.918;5.338;2023-05-29T10:34:39;18.30;98.30
40828;DHT22;26549;50.918;5.338;2023-05-29T10:40:07;18.80;96.60
40828;DHT22;26549;50.918;5.338;2023-05-29T10:42:54;18.80;96.60
40828;DHT22;26549;50.918;5.338;2023-05-29T10:50:48;18.60;97.20
40828;DHT22;26549;50.918;5.338;2023-05-29T10:53:23;18.70;96.80
40828;DHT22;26549;50.918;5.338;2023-05-29T10:55:51;18.70;96.50
40828;DHT22;26549;50.918;5.338;2023-05-29T10:58:21;18.70;96.40
40828;DHT22;26549;50.918;5.338;2023-05-29T11:00:52;18.50;96.50
40828;DHT22;26549;50.918;5.338;2023-05-29T11:03:45;18.60;96.50
40828;DHT22;26549;50.918;5.338;2023-05-29T11:06:39;19.00;97.40
40828;DHT22;26549;50.918;5.338;2023-05-29T11:09:52;19.30;95.90
40828;DHT22;26549;50.918;5.338;2023-05-29T11:12:27;19.20;95.70
40828;DHT22;26549;50.918;5.338;2023-05-29T11:15:09;19.30;96.00
40828;DHT22;26549;50.918;5.338;2023-05-29T11:17:45;19.40;95.80
40828;DHT22;26549;50.918;5.338;2023-05-29T11:25:24;19.30;96.00
40828;DHT22;26549;50.918;5.338;2023-05-29T11:27:51;19.60;95.50
40828;DHT22;26549;50.918;5.338;2023-05-29T11:30:21;19.50;95.30
40828;DHT22;26549;50.918;5.338;2023-05-29T11:32:47;19.60;94.60
40828;DHT22;26549;50.918;5.338;2023-05-29T11:35:14;19.60;94.70
40828;DHT22;26549;50.918;5.338;2023-05-29T11:37:43;19.50;94.00
40828;DHT22;26549;50.918;5.338;2023-05-29T11:40:12;19.40;95.30
40828;DHT22;26549;50.918;5.338;2023-05-29T11:42:47;19.60;95.40
40828;DHT22;26549;50.918;5.338;2023-05-29T11:45:21;19.90;95.10
40828;DHT22;26549;50.918;5.338;2023-05-29T11:47:59;20.00;94.40
40828;DHT22;26549;50.918;5.338;2023-05-29T11:50:28;20.00;94.20
40828;DHT22;26549;50.918;5.338;2023-05-29T11:52:56;19.70;94.20
40828;DHT22;26549;50.918;5.338;2023-05-29T11:55:22;19.70;94.70
40828;DHT22;26549;50.918;5.338;2023-05-29T11:57:55;19.80;94.70
40828;DHT22;26549;50.918;5.338;2023-05-29T12:00:24;19.70;94.50
40828;DHT22;26549;50.918;5.338;2023-05-29T12:02:50;19.70;95.20
40828;DHT22;26549;50.918;5.338;2023-05-29T12:05:19;19.80;94.30
40828;DHT22;26549;50.918;5.338;2023-05-29T12:07:51;19.80;94.80
40828;DHT22;26549;50.918;5.338;2023-05-29T12:10:18;20.20;96.00
40828;DHT22;26549;50.918;5.338;2023-05-29T12:12:50;20.40;96.30
40828;DHT22;26549;50.918;5.338;2023-05-29T12:15:16;20.60;94.00
40828;DHT22;26549;50.918;5.338;2023-05-29T12:17:43;20.90;94.60
40828;DHT22;26549;50.918;5.338;2023-05-29T12:20:12;20.60;94.10
40828;DHT22;26549;50.918;5.338;2023-05-29T12:22:40;20.60;93.50
40828;DHT22;26549;50.918;5.338;2023-05-29T12:27:41;20.40;94.70
40828;DHT22;26549;50.918;5.338;2023-05-29T12:30:10;20.10;93.60
40828;DHT22;26549;50.918;5.338;2023-05-29T12:32:43;20.20;93.70
40828;DHT22;26549;50.918;5.338;2023-05-29T12:35:11;20.30;94.20
40828;DHT22;26549;50.918;5.338;2023-05-29T12:37:57;20.40;93.50
40828;DHT22;26549;50.918;5.338;2023-05-29T12:40:33;20.70;94.30
40828;DHT22;26549;50.918;5.338;2023-05-29T12:43:08;21.00;93.10
40828;DHT22;26549;50.918;5.338;2023-05-29T12:45:36;21.00;92.80
40828;DHT22;26549;50.918;5.338;2023-05-29T12:48:04;21.10;93.20
40828;DHT22;26549;50.918;5.338;2023-05-29T12:50:35;21.20;92.30
40828;DHT22;26549;50.918;5.338;2023-05-29T12:53:11;21.10;92.30
40828;DHT22;26549;50.918;5.338;2023-05-29T12:55:38;20.80;92.50
40828;DHT22;26549;50.918;5.338;2023-05-29T12:58:08;20.70;92.90
40828;DHT22;26549;50.918;5.338;2023-05-29T13:00:36;20.60;93.70
40828;DHT22;26549;50.918;5.338;2023-05-29T13:03:04;20.70;92.90
40828;DHT22;26549;50.918;5.338;2023-05-29T13:05:30;20.80;93.60
40828;DHT22;26549;50.918;5.338;2023-05-29T13:07:57;20.90;93.10
40828;DHT22;26549;50.918;5.338;2023-05-29T13:10:24;21.00;93.20
40828;DHT22;26549;50.918;5.338;2023-05-29T13:12:53;21.20;93.00
40828;DHT22;26549;50.918;5.338;2023-05-29T13:15:21;21.20;93.10
40828;DHT22;26549;50.918;5.338;2023-05-29T13:17:47;21.00;92.90
40828;DHT22;26549;50.918;5.338;2023-05-29T13:20:13;21.00;93.10
40828;DHT22;26549;50.918;5.338;2023-05-29T13:22:41;20.60;92.80
40828;DHT22;26549;50.918;5.338;2023-05-29T13:25:08;20.60;93.50
40828;DHT22;26549;50.918;5.338;2023-05-29T13:27:36;20.50;94.00
40828;DHT22;26549;50.918;5.338;2023-05-29T13:30:04;20.70;93.70
40828;DHT22;26549;50.918;5.338;2023-05-29T13:32:30;20.70;93.20
40828;DHT22;26549;50.918;5.338;2023-05-29T13:34:56;20.80;92.90
40828;DHT22;26549;50.918;5.338;2023-05-29T13:37:22;20.70;92.70
40828;DHT22;26549;50.918;5.338;2023-05-29T13:39:48;20.50;92.80
40828;DHT22;26549;50.918;5.338;2023-05-29T13:42:14;20.60;93.10
40828;DHT22;26549;50.918;5.338;2023-05-29T13:44:39;20.70;92.90
40828;DHT22;26549;50.918;5.338;2023-05-29T13:47:06;20.80;92.70
40828;DHT22;26549;50.918;5.338;2023-05-29T13:49:33;20.80;92.70
40828;DHT22;26549;50.918;5.338;2023-05-29T13:51:59;20.80;92.80
40828;DHT22;26549;50.918;5.338;2023-05-29T13:54:24;20.90;93.20
40828;DHT22;26549;50.918;5.338;2023-05-29T13:56:50;21.20;94.60
40828;DHT22;26549;50.918;5.338;2023-05-29T13:59:16;21.40;92.60
40828;DHT22;26549;50.918;5.338;2023-05-29T14:01:42;21.50;92.20
40828;DHT22;26549;50.918;5.338;2023-05-29T14:04:07;21.40;92.20
40828;DHT22;26549;50.918;5.338;2023-05-29T14:06:33;21.20;92.50
40828;DHT22;26549;50.918;5.338;2023-05-29T14:08:59;21.20;92.80
40828;DHT22;26549;50.918;5.338;2023-05-29T14:11:26;21.00;92.50
40828;DHT22;26549;50.918;5.338;2023-05-29T14:13:52;21.00;93.30
40828;DHT22;26549;50.918;5.338;2023-05-29T14:16:18;21.10;92.50
40828;DHT22;26549;50.918;5.338;2023-05-29T14:18:43;21.10;92.20
40828;DHT22;26549;50.918;5.338;2023-05-29T14:21:09;21.10;92.70
40828;DHT22;26549;50.918;5.338;2023-05-29T14:23:36;21.10;92.40
40828;DHT22;26549;50.918;5.338;2023-05-29T14:26:02;20.70;93.00
40828;DHT22;26549;50.918;5.338;2023-05-29T14:28:28;20.80;92.10
40828;DHT22;26549;50.918;5.338;2023-05-29T14:30:53;20.80;92.30
40828;DHT22;26549;50.918;5.338;2023-05-29T14:33:19;21.00;92.60
40828;DHT22;26549;50.918;5.338;2023-05-29T14:35:48;21.30;92.20
40828;DHT22;26549;50.918;5.338;2023-05-29T14:38:13;21.10;91.90
40828;DHT22;26549;50.918;5.338;2023-05-29T14:40:39;21.10;92.20
40828;DHT22;26549;50.918;5.338;2023-05-29T14:43:05;21.20;92.20
40828;DHT22;26549;50.918;5.338;2023-05-29T14:45:31;21.30;92.20
40828;DHT22;26549;50.918;5.338;2023-05-29T14:47:57;21.40;92.40
40828;DHT22;26549;50.918;5.338;2023-05-29T14:50:23;21.50;91.20
40828;DHT22;26549;50.918;5.338;2023-05-29T14:52:48;21.40;91.50
40828;DHT22;26549;50.918;5.338;2023-05-29T14:55:14;21.30;91.80
40828;DHT22;26549;50.918;5.338;2023-05-29T14:57:42;21.00;91.90
40828;DHT22;26549;50.918;5.338;2023-05-29T15:00:08;21.00;91.40
40828;DHT22;26549;50.918;5.338;2023-05-29T15:02:34;21.00;92.00
40828;DHT22;26549;50.918;5.338;2023-05-29T15:05:00;20.70;92.00
40828;DHT22;26549;50.918;5.338;2023-05-29T15:07:26;20.80;92.90
40828;DHT22;26549;50.918;5.338;2023-05-29T15:09:52;20.70;91.70
40828;DHT22;26549;50.918;5.338;2023-05-29T15:12:18;20.80;92.00
40828;DHT22;26549;50.918;5.338;2023-05-29T15:14:44;20.90;92.00
40828;DHT22;26549;50.918;5.338;2023-05-29T15:17:09;20.80;91.70
40828;DHT22;26549;50.918;5.338;2023-05-29T15:19:35;20.80;91.70
40828;DHT22;26549;50.918;5.338;2023-05-29T15:22:01;20.70;91.70
40828;DHT22;26549;50.918;5.338;2023-05-29T15:24:27;20.50;92.40
40828;DHT22;26549;50.918;5.338;2023-05-29T15:26:52;20.70;92.30
40828;DHT22;26549;50.918;5.338;2023-05-29T15:29:19;20.80;92.00
40828;DHT22;26549;50.918;5.338;2023-05-29T15:31:44;20.80;92.00
40828;DHT22;26549;50.918;5.338;2023-05-29T15:34:10;20.70;91.80
40828;DHT22;26549;50.918;5.338;2023-05-29T15:36:36;20.50;92.20
40828;DHT22;26549;50.918;5.338;2023-05-29T15:39:02;20.50;92.80
40828;DHT22;26549;50.918;5.338;2023-05-29T15:41:37;20.50;92.50
40828;DHT22;26549;50.918;5.338;2023-05-29T15:44:03;20.60;92.00
40828;DHT22;26549;50.918;5.338;2023-05-29T15:46:29;20.50;91.90
40828;DHT22;26549;50.918;5.338;2023-05-29T15:48:56;20.50;93.10
40828;DHT22;26549;50.918;5.338;2023-05-29T15:51:22;20.60;92.30
40828;DHT22;26549;50.918;5.338;2023-05-29T15:54:19;20.70;91.70
40828;DHT22;26549;50.918;5.338;2023-05-29T15:57:06;20.70;91.60
40828;DHT22;26549;50.918;5.338;2023-05-29T15:59:33;20.60;91.70
40828;DHT22;26549;50.918;5.338;2023-05-29T16:01:59;20.30;91.90
40828;DHT22;26549;50.918;5.338;2023-05-29T16:04:26;20.10;91.40
40828;DHT22;26549;50.918;5.338;2023-05-29T16:06:54;20.20;91.90
40828;DHT22;26549;50.918;5.338;2023-05-29T16:09:22;20.10;91.70
40828;DHT22;26549;50.918;5.338;2023-05-29T16:11:48;20.00;91.80
40828;DHT22;26549;50.918;5.338;2023-05-29T16:14:14;20.00;91.80
40828;DHT22;26549;50.918;5.338;2023-05-29T16:16:40;20.20;91.30
40828;DHT22;26549;50.918;5.338;2023-05-29T16:19:06;20.00;91.40
40828;DHT22;26549;50.918;5.338;2023-05-29T16:21:32;20.10;91.00